Airfield :
LOGIN :

Register | Disclaimer

   EN    FR    IT 

 










Legend :    VFR   Marginal VFR   IFR   Intensive IFR   Very Intensive IFR
Visi :
Ceiling :
>= 8 km
>= 3000ft
5 to 8 km
1000 to 3000 ft
1500m to 5 km
500 to 1000 ft
800 to 1500m
200 to 500 ft
< 800m
< 200 ft
Symbols :   Thunderstorms  Fog  Heavy snow  Heavy precipitations  Wind > 20 kt
SIGMETs :     Misc.  Thunderstorms  Icing  Turbulence  Mountain Waves  Volcanic Ashes






- Airport Elevation : 291 ft
- IATA code : ORY


LFPO - Paris-Orly

CURRENT METAR :
  • 011230Z 02011KT 9999 BKN014 BKN050 06/03 Q1025 NOSIG

EXPIRED METARs :
  • 011200Z 01013KT 340V040 9999 BKN014 BKN048 06/03 Q1025 NOSIG
  • 011130Z 01011KT 9999 SCT013 BKN048 06/03 Q1025 NOSIG
  • 011100Z 36012KT 330V030 9999 SCT012 BKN048 06/03 Q1026 NOSIG
  • 011030Z 01011KT 8000 SCT011 BKN048 05/03 Q1026 NOSIG
  • 011000Z 36011KT 8000 BKN010 BKN048 05/03 Q1026 NOSIG

TAF TAF LFPO
Valid from the 01 at 12:00 until the 02 at 18:00 UTC


011100Z 0112/0218 02010KT 9999 SCT014 BKN035
TEMPO 0112/0123 BKN013
BECMG 0123/0201 BKN013 BKN020
PROB40
TEMPO 0203/0212 BKN009
ATIS : +33 1 49 75 65 80



MET'MAP, your aeronautical weather chart ! - Copyright ORBIFLY December 2007 - Disclaimer

ORBIFLY MET'MAP TEAM :

Programming & Development : Alexandra Zaïnal
Original concept : Baudouin d'Aumeries
Technical & hardware support : Manuel Goepfert
Assistance : Marc-Olivier Méhu




SOURCES & CREDITS :

   NOAA